Time;durP1;ratioP1;P1;durP2;ratioP2;P2;SDS_P1;SDS_P2;PMS_P1;PMS_P2;Temp;Humidity;BMP_temperature;BMP_pressure;BME280_temperature;BME280_humidity;BME280_pressure;Samples;Min_cycle;Max_cycle;Signal;HPM_P1;HPM_P2
2021/06/12 00:00:44;;;;;;;8.23;5.88;;;20.80;64.60;;;;;;5031417;28;20112;-67
2021/06/12 00:03:09;;;;;;;9.00;6.68;;;20.80;64.70;;;;;;5031487;28;20018;-68
2021/06/12 00:05:35;;;;;;;40.10;24.02;;;20.80;64.40;;;;;;5031119;28;20071;-68
2021/06/12 00:08:00;;;;;;;11.68;7.18;;;20.80;64.50;;;;;;5030568;28;20025;-68
2021/06/12 00:10:30;;;;;;;12.80;8.10;;;20.90;64.30;;;;;;5023970;28;20084;-68
2021/06/12 00:12:56;;;;;;;8.02;6.45;;;20.90;63.90;;;;;;5013808;28;20026;-68
2021/06/12 00:15:23;;;;;;;8.98;6.03;;;20.90;64.10;;;;;;5031185;28;20018;-68
2021/06/12 00:17:49;;;;;;;6.72;6.13;;;20.90;64.00;;;;;;5030138;28;20025;-68
2021/06/12 00:20:21;;;;;;;7.13;6.18;;;20.80;64.30;;;;;;5030988;28;20104;-68
2021/06/12 00:22:47;;;;;;;7.15;6.45;;;20.70;64.70;;;;;;5029686;28;20025;-68
2021/06/12 00:25:15;;;;;;;10.35;6.25;;;20.80;64.50;;;;;;5031199;28;20136;-67
2021/06/12 00:27:40;;;;;;;7.25;5.95;;;20.80;64.50;;;;;;5030245;28;20434;-67
2021/06/12 00:30:08;;;;;;;6.45;5.85;;;20.80;64.80;;;;;;5030965;28;20026;-67
2021/06/12 00:32:34;;;;;;;6.25;5.43;;;20.90;64.50;;;;;;5031117;28;20407;-67
2021/06/12 00:34:59;;;;;;;10.77;6.88;;;20.90;64.80;;;;;;5030723;28;20116;-67
2021/06/12 00:37:25;;;;;;;10.60;6.20;;;20.80;66.40;;;;;;5029938;28;20502;-73
2021/06/12 00:39:51;;;;;;;7.90;6.80;;;20.70;66.60;;;;;;5029447;28;20029;-67
2021/06/12 00:42:17;;;;;;;10.23;7.10;;;20.60;66.90;;;;;;5034187;28;20067;-66
2021/06/12 00:44:42;;;;;;;9.45;6.82;;;20.50;66.80;;;;;;5033800;28;20391;-67
2021/06/12 00:47:08;;;;;;;10.50;7.75;;;20.50;66.90;;;;;;5017940;28;20022;-67
2021/06/12 00:49:35;;;;;;;9.73;7.22;;;20.40;68.00;;;;;;5033600;28;20025;-66
2021/06/12 00:52:00;;;;;;;9.82;7.78;;;20.40;68.10;;;;;;5033577;28;20034;-66
2021/06/12 00:54:26;;;;;;;8.07;7.28;;;20.40;68.20;;;;;;5034670;28;20415;-67
2021/06/12 00:56:52;;;;;;;9.52;7.50;;;20.40;68.20;;;;;;5033881;28;20021;-66
2021/06/12 00:59:19;;;;;;;9.82;7.50;;;20.50;68.50;;;;;;5034659;28;20013;-67
2021/06/12 01:01:44;;;;;;;9.65;8.05;;;20.50;68.30;;;;;;5034782;28;20025;-66
2021/06/12 01:04:10;;;;;;;9.23;7.85;;;20.50;68.50;;;;;;5034506;28;20105;-67
2021/06/12 01:06:35;;;;;;;11.35;8.27;;;20.50;68.20;;;;;;5033724;28;20092;-67
2021/06/12 01:09:01;;;;;;;8.93;7.85;;;20.50;68.30;;;;;;5034671;28;20026;-67
2021/06/12 01:11:26;;;;;;;10.75;8.00;;;20.60;67.90;;;;;;5034939;28;20032;-66
2021/06/12 01:14:13;;;;;;;10.88;8.23;;;20.60;68.10;;;;;;5033211;28;20029;-66
2021/06/12 01:17:05;;;;;;;10.90;8.02;;;20.50;68.00;;;;;;5033543;28;20064;-67
2021/06/12 01:20:01;;;;;;;8.75;7.70;;;20.40;68.70;;;;;;5020788;28;20026;-67
2021/06/12 01:22:42;;;;;;;11.25;7.50;;;20.40;68.60;;;;;;5027401;28;20155;-66
2021/06/12 01:25:27;;;;;;;12.10;8.45;;;20.30;69.00;;;;;;5032887;28;20021;-66
2021/06/12 01:28:29;;;;;;;10.52;8.18;;;20.30;69.70;;;;;;5033094;28;20108;-67
2021/06/12 01:30:56;;;;;;;9.07;7.95;;;20.20;69.70;;;;;;5034045;28;20084;-67
2021/06/12 01:33:22;;;;;;;11.75;9.10;;;20.00;69.80;;;;;;5034139;28;20471;-67
2021/06/12 01:35:52;;;;;;;9.00;8.07;;;19.90;70.20;;;;;;5033501;28;20040;-67
2021/06/12 01:38:28;;;;;;;10.57;8.02;;;19.70;70.60;;;;;;5032050;28;20060;-67
2021/06/12 01:40:57;;;;;;;9.90;8.00;;;19.70;70.90;;;;;;5033889;28;20022;-67
2021/06/12 01:43:25;;;;;;;9.57;8.57;;;19.50;71.60;;;;;;5033775;28;20472;-66
2021/06/12 01:45:51;;;;;;;13.35;8.13;;;19.50;72.10;;;;;;5023140;28;20053;-67
2021/06/12 01:48:18;;;;;;;9.27;8.18;;;19.40;72.50;;;;;;5026773;28;20018;-67
2021/06/12 01:50:45;;;;;;;11.65;8.63;;;19.40;73.10;;;;;;5033802;28;20017;-67
2021/06/12 01:53:16;;;;;;;11.15;8.40;;;19.30;73.20;;;;;;5031131;28;20102;-67
2021/06/12 01:55:42;;;;;;;8.65;7.75;;;19.20;73.70;;;;;;5033677;28;20020;-67
2021/06/12 01:58:14;;;;;;;11.27;7.75;;;19.10;73.90;;;;;;5033083;28;20021;-67
2021/06/12 02:00:40;;;;;;;10.13;8.23;;;19.00;74.10;;;;;;5033557;28;20265;-66
2021/06/12 02:03:07;;;;;;;8.98;7.55;;;19.00;74.50;;;;;;5033543;28;20171;-66
2021/06/12 02:05:33;;;;;;;10.48;7.53;;;18.90;74.60;;;;;;5033474;28;20391;-66
2021/06/12 02:08:01;;;;;;;14.07;9.18;;;18.80;75.10;;;;;;5032773;28;20111;-66
2021/06/12 02:10:31;;;;;;;9.18;8.27;;;18.70;75.30;;;;;;5019587;28;20065;-66
2021/06/12 02:12:57;;;;;;;11.80;8.73;;;18.70;75.90;;;;;;5031580;28;20461;-66
2021/06/12 02:15:25;;;;;;;10.82;9.32;;;18.60;76.00;;;;;;5031851;28;20479;-67
2021/06/12 02:18:01;;;;;;;10.00;8.43;;;18.70;75.90;;;;;;5032311;28;20048;-66
2021/06/12 02:20:30;;;;;;;9.45;8.40;;;18.70;75.70;;;;;;5033226;28;20036;-66
2021/06/12 02:22:56;;;;;;;9.75;7.85;;;18.70;75.60;;;;;;5029212;28;20649;-66
2021/06/12 02:25:21;;;;;;;9.73;7.95;;;18.70;75.70;;;;;;5030596;28;20029;-66
2021/06/12 02:27:50;;;;;;;9.30;8.40;;;18.60;75.90;;;;;;5032212;28;20033;-66
2021/06/12 02:30:19;;;;;;;8.60;7.80;;;18.60;76.20;;;;;;5033077;28;20048;-66
2021/06/12 02:32:49;;;;;;;11.63;8.55;;;18.50;76.30;;;;;;5032895;28;20029;-67
2021/06/12 02:35:15;;;;;;;10.57;8.23;;;18.40;76.60;;;;;;5015683;28;20029;-66
2021/06/12 02:37:44;;;;;;;9.45;7.93;;;18.50;76.70;;;;;;5030672;28;20096;-66
2021/06/12 02:40:11;;;;;;;9.52;8.52;;;18.30;77.00;;;;;;5033199;28;20014;-66
2021/06/12 02:42:37;;;;;;;10.35;8.60;;;18.30;76.90;;;;;;5032877;28;20022;-66
2021/06/12 02:45:08;;;;;;;8.93;8.02;;;18.30;77.10;;;;;;5030227;28;20033;-66
2021/06/12 02:47:46;;;;;;;11.05;7.97;;;18.30;77.10;;;;;;5018752;28;20037;-66
2021/06/12 02:50:13;;;;;;;11.20;8.38;;;18.30;77.00;;;;;;5032960;28;20472;-66
2021/06/12 02:52:40;;;;;;;10.95;8.82;;;18.30;77.30;;;;;;5032610;28;20502;-67
2021/06/12 02:55:08;;;;;;;10.05;8.40;;;18.20;77.40;;;;;;5032783;28;20018;-66
2021/06/12 02:57:45;;;;;;;9.45;8.43;;;18.10;77.30;;;;;;5031935;28;20087;-66
2021/06/12 03:00:12;;;;;;;8.80;8.00;;;18.20;77.60;;;;;;5032379;28;20025;-65
2021/06/12 03:02:41;;;;;;;13.23;8.20;;;18.20;77.40;;;;;;5032455;28;20104;-66
2021/06/12 03:05:11;;;;;;;9.93;8.38;;;18.20;77.50;;;;;;5031659;28;20152;-66
2021/06/12 03:07:38;;;;;;;10.60;7.68;;;18.30;77.10;;;;;;5031482;28;20037;-65
2021/06/12 03:10:05;;;;;;;9.40;8.02;;;18.40;77.10;;;;;;5021772;28;20431;-67
2021/06/12 03:12:35;;;;;;;8.90;7.63;;;18.40;76.70;;;;;;5026664;28;20025;-65
2021/06/12 03:15:02;;;;;;;9.52;7.30;;;18.30;77.10;;;;;;5032220;28;20032;-67
2021/06/12 03:17:29;;;;;;;10.80;8.10;;;18.30;77.10;;;;;;5031482;28;20024;-67
2021/06/12 03:19:57;;;;;;;10.27;7.68;;;18.40;76.70;;;;;;5032019;28;20033;-67
2021/06/12 03:22:24;;;;;;;8.77;7.90;;;18.50;76.30;;;;;;5026787;28;20076;-66
2021/06/12 03:24:50;;;;;;;8.98;8.07;;;18.50;76.00;;;;;;5029142;28;20029;-67
2021/06/12 03:27:16;;;;;;;8.50;7.32;;;18.60;75.70;;;;;;5031170;28;20446;-67
2021/06/12 03:29:43;;;;;;;10.52;7.68;;;18.70;75.40;;;;;;5030230;28;20419;-65
2021/06/12 03:32:09;;;;;;;15.57;7.82;;;18.70;75.50;;;;;;5031851;28;20040;-67
2021/06/12 03:34:35;;;;;;;7.88;7.13;;;18.80;74.80;;;;;;5031444;28;20022;-67
2021/06/12 03:37:01;;;;;;;10.70;7.22;;;18.70;75.20;;;;;;5028064;28;20479;-67
2021/06/12 03:39:26;;;;;;;11.13;7.70;;;18.80;75.30;;;;;;5017592;28;20435;-67
2021/06/12 03:41:53;;;;;;;8.48;7.30;;;19.00;74.90;;;;;;5031414;28;20056;-67
2021/06/12 03:44:20;;;;;;;8.10;6.85;;;19.10;74.40;;;;;;5030340;28;20080;-66
2021/06/12 03:46:47;;;;;;;7.80;6.88;;;19.30;73.90;;;;;;5014612;28;20524;-67
2021/06/12 03:49:14;;;;;;;7.43;6.72;;;19.50;73.10;;;;;;5031568;28;20032;-67
2021/06/12 03:51:41;;;;;;;9.68;6.97;;;20.20;71.10;;;;;;5026829;28;20540;-67
2021/06/12 03:54:08;;;;;;;8.52;6.38;;;20.80;68.80;;;;;;5022871;28;20025;-67
2021/06/12 03:56:35;;;;;;;6.72;6.10;;;21.50;66.80;;;;;;5030592;28;20021;-67
2021/06/12 03:59:02;;;;;;;6.90;6.20;;;21.90;64.90;;;;;;5031448;28;20024;-67
2021/06/12 04:01:28;;;;;;;8.02;6.13;;;22.00;64.40;;;;;;5031325;28;20025;-67
2021/06/12 04:03:53;;;;;;;7.22;5.90;;;22.00;64.50;;;;;;5031160;28;20029;-67
2021/06/12 04:06:20;;;;;;;6.80;6.10;;;22.00;64.30;;;;;;5030584;28;20037;-67
2021/06/12 04:08:48;;;;;;;7.97;5.82;;;22.00;64.40;;;;;;5030883;28;20163;-66
2021/06/12 04:11:13;;;;;;;7.60;6.07;;;22.00;64.90;;;;;;5014197;28;20025;-67
2021/06/12 04:13:39;;;;;;;6.57;5.90;;;21.90;65.00;;;;;;5029894;28;20476;-67
2021/06/12 04:16:05;;;;;;;9.75;6.18;;;21.90;64.60;;;;;;5027318;28;20048;-66
2021/06/12 04:18:30;;;;;;;8.32;6.25;;;21.80;65.60;;;;;;5030064;28;20035;-67
2021/06/12 04:20:56;;;;;;;10.18;7.85;;;21.80;65.90;;;;;;5028895;28;20048;-67
2021/06/12 04:23:22;;;;;;;8.85;7.05;;;21.70;65.80;;;;;;5029282;28;20021;-66
2021/06/12 04:25:48;;;;;;;38.67;24.25;;;21.60;66.40;;;;;;5021219;28;20105;-68
2021/06/12 04:28:13;;;;;;;6.75;5.85;;;;;;;;;;5022640;28;20072;-67
2021/06/12 04:30:39;;;;;;;8.75;5.93;;;;;;;;;;5029730;28;20021;-67
2021/06/12 04:33:05;;;;;;;6.78;5.43;;;;;;;;;;5014680;28;20034;-68
2021/06/12 04:35:32;;;;;;;8.15;5.53;;;;;;;;;;5044348;22;20037;-69
2021/06/12 04:37:59;;;;;;;10.88;5.85;;;;;;;;;;5028626;28;20026;-69
2021/06/12 04:40:25;;;;;;;7.93;5.50;;;;;;;;;;5030751;28;20434;-68
2021/06/12 04:42:51;;;;;;;7.28;5.68;;;;;;;;;;5029791;28;20025;-69
2021/06/12 04:45:17;;;;;;;16.95;6.07;;;;;;;;;;5015222;28;20018;-68
2021/06/12 04:47:43;;;;;;;7.97;5.57;;;;;;;;;;5022364;28;20026;-68
2021/06/12 04:50:10;;;;;;;9.43;5.68;;;;;;;;;;5021182;28;20048;-68
2021/06/12 04:52:36;;;;;;;6.55;5.47;;;;;;;;;;5019196;28;20072;-68
2021/06/12 04:55:03;;;;;;;6.30;5.28;;;;;;;;;;5021470;28;20030;-67
2021/06/12 04:57:29;;;;;;;10.05;5.85;;;;;;;;;;5022595;28;20018;-67
2021/06/12 04:59:55;;;;;;;7.30;5.57;;;;;;;;;;5020072;28;20037;-68
2021/06/12 05:02:21;;;;;;;6.85;5.55;;;;;;;;;;5016397;28;20022;-68
2021/06/12 05:04:47;;;;;;;6.53;5.80;;;;;;;;;;5026977;28;20030;-67
2021/06/12 05:07:13;;;;;;;6.55;5.53;;;;;;;;;;5012841;28;20029;-68
2021/06/12 05:09:38;;;;;;;9.07;6.55;;;;;;;;;;5029243;28;20027;-68
2021/06/12 05:12:05;;;;;;;8.48;6.05;;;;;;;;;;5019779;28;20022;-69
2021/06/12 05:14:31;;;;;;;6.88;5.95;;;;;;;;;;5024813;28;20026;-69
2021/06/12 05:17:01;;;;;;;7.88;6.35;;;;;;;;;;5020838;28;20088;-67
2021/06/12 05:19:27;;;;;;;7.60;5.97;;;;;;;;;;5024899;28;20010;-69
2021/06/12 05:21:53;;;;;;;7.32;6.63;;;;;;;;;;5018590;28;20553;-69
2021/06/12 05:24:19;;;;;;;9.60;6.47;;;;;;;;;;5016441;28;20022;-68
2021/06/12 05:26:45;;;;;;;9.13;6.68;;;;;;;;;;5025326;28;20487;-69
2021/06/12 05:29:10;;;;;;;8.75;5.88;;;;;;;;;;5025507;28;20056;-69
2021/06/12 05:31:36;;;;;;;10.23;6.30;;;;;;;;;;5025774;28;20026;-68
2021/06/12 05:34:03;;;;;;;6.97;6.28;;;;;;;;;;5024814;28;20551;-68
2021/06/12 05:36:31;;;;;;;7.15;5.90;;;;;;;;;;5026661;28;20168;-69
2021/06/12 05:38:57;;;;;;;6.85;6.15;;;;;;;;;;5017202;28;20477;-69
2021/06/12 05:41:23;;;;;;;8.13;6.30;;;;;;;;;;5027673;28;20077;-69
2021/06/12 05:43:49;;;;;;;10.32;7.07;;;;;;;;;;5021318;28;20025;-68
2021/06/12 05:46:16;;;;;;;8.13;6.70;;;;;;;;;;5020825;28;20036;-69
2021/06/12 05:48:42;;;;;;;6.85;5.25;;;;;;;;;;5029796;28;20044;-69
2021/06/12 05:51:08;;;;;;;12.43;6.65;;;;;;;;;;5017365;28;20487;-69
2021/06/12 05:53:34;;;;;;;8.18;5.47;;;;;;;;;;5032349;28;20026;-70
2021/06/12 05:56:00;;;;;;;6.30;5.70;;;;;;;;;;5023547;28;20033;-69
2021/06/12 05:58:26;;;;;;;8.75;5.85;;;;;;;;;;5026727;28;20029;-68
2021/06/12 06:00:52;;;;;;;6.68;5.97;;;;;;;;;;5017113;28;20022;-69
2021/06/12 06:03:18;;;;;;;9.70;5.70;;;;;;;;;;5029371;28;20022;-70
2021/06/12 06:05:44;;;;;;;7.35;5.20;;;;;;;;;;5021696;28;20032;-69
2021/06/12 06:08:10;;;;;;;5.95;4.72;;;;;;;;;;5030611;28;20030;-70
2021/06/12 06:10:36;;;;;;;5.72;4.90;;;;;;;;;;5018182;28;20080;-69
2021/06/12 06:13:05;;;;;;;5.28;4.55;;;29.00;44.20;;;;;;5029766;28;20033;-68
2021/06/12 06:15:33;;;;;;;7.32;4.25;;;29.90;41.60;;;;;;5019625;28;20026;-67
2021/06/12 06:17:59;;;;;;;8.40;4.70;;;30.50;40.70;;;;;;5032529;28;20514;-67
2021/06/12 06:20:24;;;;;;;6.45;4.85;;;30.40;40.90;;;;;;5019571;28;20018;-67
2021/06/12 06:22:50;;;;;;;6.05;5.18;;;29.90;42.30;;;;;;5028191;28;20476;-67
2021/06/12 06:25:16;;;;;;;6.63;5.43;;;29.60;42.50;;;;;;5017229;28;20028;-67
2021/06/12 06:27:41;;;;;;;11.88;9.05;;;28.90;43.70;;;;;;5024283;28;20037;-67
2021/06/12 06:30:08;;;;;;;5.80;4.78;;;27.70;47.00;;;;;;5030565;28;20124;-67
2021/06/12 06:32:33;;;;;;;7.72;5.60;;;27.20;48.30;;;;;;5018052;28;20021;-68
2021/06/12 06:34:59;;;;;;;5.65;5.00;;;27.20;48.20;;;;;;5028966;28;20084;-67
2021/06/12 06:37:25;;;;;;;5.55;4.72;;;;;;;;;;5022331;28;20022;-68
2021/06/12 06:39:51;;;;;;;5.63;5.05;;;;;;;;;;5020409;28;20117;-68
2021/06/12 06:42:17;;;;;;;6.55;4.72;;;;;;;;;;5019989;28;20411;-68
2021/06/12 06:44:43;;;;;;;6.30;4.57;;;;;;;;;;5028842;28;20022;-68
2021/06/12 06:47:09;;;;;;;8.27;4.78;;;;;;;;;;5015332;28;20105;-68
2021/06/12 06:49:35;;;;;;;7.70;5.05;;;;;;;;;;5024291;28;20022;-68
2021/06/12 06:52:04;;;;;;;12.35;6.00;;;;;;;;;;5022879;28;20030;-69
2021/06/12 06:54:30;;;;;;;7.18;5.30;;;;;;;;;;5032330;28;20161;-68
2021/06/12 06:56:56;;;;;;;7.10;6.03;;;;;;;;;;5023905;28;20021;-69
2021/06/12 06:59:22;;;;;;;7.60;5.55;;;;;;;;;;5027422;28;20022;-69
2021/06/12 07:01:48;;;;;;;6.65;5.65;;;;;;;;;;5020848;28;20032;-74
2021/06/12 07:04:14;;;;;;;5.88;5.18;;;;;;;;;;5018587;28;20022;-69
2021/06/12 07:06:40;;;;;;;5.68;5.18;;;;;;;;;;5024107;28;20044;-69
2021/06/12 07:09:06;;;;;;;8.25;5.43;;;;;;;;;;5027149;28;20026;-68
2021/06/12 07:11:32;;;;;;;7.88;5.10;;;;;;;;;;5016025;28;20029;-68
2021/06/12 07:13:58;;;;;;;5.95;4.82;;;30.00;43.60;;;;;;5020766;28;20033;-69
2021/06/12 07:16:23;;;;;;;8.63;4.70;;;30.30;42.40;;;;;;5024014;28;20026;-69
2021/06/12 07:18:49;;;;;;;6.20;4.43;;;30.90;41.00;;;;;;5030456;28;20029;-69
2021/06/12 07:21:17;;;;;;;5.32;3.95;;;31.40;39.50;;;;;;5015736;28;20018;-69
2021/06/12 07:23:42;;;;;;;6.68;4.30;;;31.40;40.10;;;;;;5023720;28;20582;-69
2021/06/12 07:26:08;;;;;;;4.30;3.90;;;31.60;39.30;;;;;;5022413;28;20025;-67
2021/06/12 07:28:33;;;;;;;6.53;3.80;;;31.70;38.80;;;;;;5022611;28;20096;-70
2021/06/12 07:30:59;;;;;;;5.70;3.95;;;32.30;37.70;;;;;;5029052;28;20026;-70
2021/06/12 07:33:25;;;;;;;4.10;3.65;;;32.50;36.50;;;;;;5017040;28;20097;-69
2021/06/12 07:35:50;;;;;;;4.68;4.03;;;33.70;35.10;;;;;;5020799;28;20041;-68
2021/06/12 07:38:16;;;;;;;11.23;4.50;;;34.90;33.00;;;;;;5015992;28;20034;-69
2021/06/12 07:40:43;;;;;;;4.32;3.45;;;35.50;32.00;;;;;;5023743;28;20030;-70
2021/06/12 07:43:09;;;;;;;4.38;3.33;;;35.50;31.90;;;;;;5021119;28;20032;-69
2021/06/12 07:45:35;;;;;;;6.13;3.13;;;35.50;32.10;;;;;;5031068;28;20017;-68
2021/06/12 07:48:01;;;;;;;4.15;3.75;;;36.10;31.20;;;;;;5028205;28;20036;-71
2021/06/12 07:50:27;;;;;;;6.60;3.75;;;36.40;30.30;;;;;;5027558;28;20021;-67
2021/06/12 07:52:53;;;;;;;5.32;4.07;;;36.10;31.00;;;;;;5024877;28;20032;-70
2021/06/12 07:55:19;;;;;;;3.97;3.60;;;35.60;31.60;;;;;;5026495;28;20017;-70
2021/06/12 07:57:45;;;;;;;6.28;3.83;;;;;;;;;;5022917;28;20032;-70
2021/06/12 08:00:11;;;;;;;5.57;4.40;;;36.90;29.80;;;;;;5022120;28;20076;-70
2021/06/12 08:02:37;;;;;;;7.38;5.15;;;36.60;30.40;;;;;;5030927;28;20025;-66
2021/06/12 08:05:04;;;;;;;9.25;4.60;;;35.50;31.40;;;;;;5015574;28;20017;-70
2021/06/12 08:07:30;;;;;;;7.70;4.68;;;34.80;33.00;;;;;;5029144;28;20025;-70
2021/06/12 08:09:56;;;;;;;10.20;6.00;;;34.50;33.60;;;;;;5021489;28;20144;-69
2021/06/12 08:12:22;;;;;;;8.00;5.65;;;32.80;35.70;;;;;;5024053;28;20482;-70
2021/06/12 08:14:48;;;;;;;8.30;5.97;;;31.70;37.60;;;;;;5016296;28;20026;-69
2021/06/12 08:17:14;;;;;;;6.93;5.82;;;30.90;39.50;;;;;;5031368;28;20049;-68
2021/06/12 08:19:39;;;;;;;8.43;6.78;;;30.40;40.20;;;;;;5031348;28;20022;-70
2021/06/12 08:22:05;;;;;;;8.85;6.82;;;30.00;41.50;;;;;;5026679;28;20025;-70
2021/06/12 08:24:31;;;;;;;9.13;6.65;;;30.00;41.70;;;;;;5014968;28;20087;-69
2021/06/12 08:26:57;;;;;;;7.90;6.38;;;30.30;41.30;;;;;;5023137;28;20044;-68
2021/06/12 08:29:23;;;;;;;10.13;6.80;;;30.40;41.70;;;;;;5030325;28;20043;-69
2021/06/12 08:31:48;;;;;;;8.48;6.20;;;30.50;41.90;;;;;;5025566;28;20101;-68
2021/06/12 08:34:14;;;;;;;10.73;6.68;;;30.10;42.70;;;;;;5023007;28;20022;-69
2021/06/12 08:36:39;;;;;;;12.23;7.00;;;30.00;42.70;;;;;;5015195;28;20075;-69
2021/06/12 08:39:05;;;;;;;15.13;7.28;;;29.90;43.50;;;;;;5027037;28;20022;-69
2021/06/12 08:41:31;;;;;;;10.40;6.45;;;30.00;42.30;;;;;;5017226;28;20048;-72
2021/06/12 08:44:01;;;;;;;8.63;6.35;;;29.90;43.00;;;;;;5027947;28;20392;-68
2021/06/12 08:46:30;;;;;;;7.97;6.68;;;30.00;42.50;;;;;;5026460;28;20075;-67
2021/06/12 08:48:56;;;;;;;44.33;21.98;;;29.60;43.10;;;;;;5013832;28;20479;-68
2021/06/12 08:51:23;;;;;;;49.70;33.97;;;29.30;44.00;;;;;;5025963;28;20029;-68
2021/06/12 08:53:49;;;;;;;11.80;7.00;;;29.30;44.60;;;;;;5027775;28;20029;-69
2021/06/12 08:56:15;;;;;;;9.85;7.35;;;29.30;44.90;;;;;;5019045;28;20034;-71
2021/06/12 08:58:41;;;;;;;9.93;5.47;;;30.00;43.90;;;;;;5024162;28;20498;-72
2021/06/12 09:01:07;;;;;;;11.65;6.65;;;30.80;41.60;;;;;;5013637;28;20026;-68
2021/06/12 09:03:40;;;;;;;8.63;5.95;;;31.20;40.40;;;;;;5029793;28;20072;-68
2021/06/12 09:06:07;;;;;;;8.63;6.32;;;31.50;39.90;;;;;;5025226;28;20017;-69
2021/06/12 09:08:37;;;;;;;8.32;5.20;;;31.40;39.70;;;;;;5020661;28;20512;-69
2021/06/12 09:11:04;;;;;;;9.73;6.38;;;31.10;40.50;;;;;;5030604;28;20036;-69
2021/06/12 09:13:53;;;;;;;9.38;6.15;;;30.80;41.30;;;;;;5030523;28;20018;-72
2021/06/12 09:16:34;;;;;;;10.52;6.53;;;30.50;41.00;;;;;;5023564;28;20106;-70
2021/06/12 09:19:17;;;;;;;8.95;6.35;;;30.00;42.10;;;;;;5016649;28;20037;-72
2021/06/12 09:21:58;;;;;;;6.70;5.15;;;30.20;42.40;;;;;;5026138;28;20018;-69
2021/06/12 09:24:34;;;;;;;12.38;6.25;;;31.40;40.30;;;;;;5033858;28;20386;-71
2021/06/12 09:27:07;;;;;;;7.05;5.15;;;31.90;38.90;;;;;;5027236;28;20029;-70
2021/06/12 09:29:50;;;;;;;8.32;5.95;;;31.90;38.30;;;;;;5024333;28;20084;-69
2021/06/12 09:32:26;;;;;;;5.30;4.80;;;32.20;37.80;;;;;;5022930;28;20037;-71
2021/06/12 09:34:55;;;;;;;6.38;4.70;;;33.00;36.50;;;;;;5024015;28;20479;-69
2021/06/12 09:37:27;;;;;;;10.52;5.65;;;33.30;35.90;;;;;;5020349;28;20117;-72
2021/06/12 09:40:11;;;;;;;4.45;4.05;;;33.60;34.90;;;;;;5026500;28;20491;-71
2021/06/12 09:42:46;;;;;;;8.27;4.97;;;33.80;35.00;;;;;;4996301;28;20045;-71
2021/06/12 09:45:14;;;;;;;7.53;4.88;;;33.50;35.40;;;;;;5021607;28;20044;-70
2021/06/12 09:47:40;;;;;;;6.68;4.60;;;33.20;35.70;;;;;;5033162;28;20040;-68
2021/06/12 09:50:08;;;;;;;7.15;4.68;;;32.50;36.90;;;;;;5022182;28;20029;-72
2021/06/12 09:53:08;;;;;;;5.78;4.70;;;32.70;36.30;;;;;;5014067;28;20022;-72
2021/06/12 09:55:34;;;;;;;8.35;5.57;;;32.70;36.30;;;;;;5012442;28;20034;-71
2021/06/12 09:58:01;;;;;;;5.78;4.40;;;32.40;36.70;;;;;;5013009;28;20045;-71
2021/06/12 10:00:39;;;;;;;7.97;4.95;;;32.00;37.70;;;;;;5014808;28;20591;-71
2021/06/12 10:03:16;;;;;;;11.10;4.65;;;32.00;37.20;;;;;;5016402;28;20029;-72
2021/06/12 10:05:42;;;;;;;12.02;5.20;;;31.80;37.90;;;;;;5021479;28;20120;-70
2021/06/12 10:08:08;;;;;;;7.03;5.05;;;31.90;37.00;;;;;;5022332;28;20115;-71
2021/06/12 10:10:34;;;;;;;5.85;5.25;;;31.50;37.50;;;;;;5020239;28;20508;-71
2021/06/12 10:13:04;;;;;;;10.60;5.97;;;30.80;39.20;;;;;;5013183;28;20056;-70
2021/06/12 10:15:30;;;;;;;7.97;5.07;;;30.80;39.50;;;;;;5025261;28;20017;-69
2021/06/12 10:17:56;;;;;;;8.77;5.95;;;30.50;39.90;;;;;;5025617;28;20063;-68
2021/06/12 10:20:23;;;;;;;7.10;5.35;;;30.30;40.60;;;;;;5033209;28;20083;-70
2021/06/12 10:22:51;;;;;;;10.90;6.18;;;30.30;41.20;;;;;;5033235;28;20018;-70
2021/06/12 10:25:20;;;;;;;20.33;13.52;;;30.00;41.70;;;;;;5033142;28;20033;-70
2021/06/12 10:27:47;;;;;;;96.90;69.57;;;30.10;42.00;;;;;;5032222;28;20029;-70
2021/06/12 10:30:14;;;;;;;11.38;6.55;;;30.00;41.90;;;;;;5031531;28;20041;-70
2021/06/12 10:32:48;;;;;;;9.52;6.78;;;30.10;41.70;;;;;;5031587;28;20033;-70
2021/06/12 10:35:32;;;;;;;10.82;6.05;;;30.00;41.60;;;;;;5033380;28;20025;-69
2021/06/12 10:38:13;;;;;;;8.40;5.10;;;29.40;42.90;;;;;;5013438;28;20033;-70
2021/06/12 10:40:40;;;;;;;13.60;5.72;;;29.20;43.90;;;;;;5020405;28;20101;-70
2021/06/12 10:43:09;;;;;;;6.88;5.10;;;29.10;44.10;;;;;;5013016;28;20036;-70
2021/06/12 10:45:34;;;;;;;6.75;5.43;;;29.20;43.80;;;;;;5031772;28;20030;-69
2021/06/12 10:48:00;;;;;;;6.82;4.50;;;29.40;43.30;;;;;;5032093;28;20036;-71
2021/06/12 10:50:25;;;;;;;10.13;7.05;;;29.70;42.40;;;;;;5032540;28;20022;-72
2021/06/12 10:53:12;;;;;;;9.60;7.00;;;29.70;42.60;;;;;;5032563;28;20088;-72
2021/06/12 10:55:48;;;;;;;32.25;19.52;;;29.50;41.70;;;;;;5030719;28;20494;-70
2021/06/12 10:58:35;;;;;;;249.93;191.88;;;29.00;42.90;;;;;;5031796;28;20099;-71
2021/06/12 11:01:12;;;;;;;25.95;17.50;;;28.50;44.00;;;;;;5032767;28;20029;-71
2021/06/12 11:06:43;;;;;;;29.42;19.95;;;27.60;47.20;;;;;;5031740;28;20025;-69
2021/06/12 11:09:15;;;;;;;24.75;15.32;;;27.10;48.80;;;;;;5033095;28;20021;-71
2021/06/12 11:11:48;;;;;;;29.83;17.80;;;27.20;48.40;;;;;;5032521;28;20022;-69
2021/06/12 11:14:23;;;;;;;36.63;27.00;;;27.60;47.70;;;;;;5032382;28;20017;-69
2021/06/12 11:17:07;;;;;;;33.67;23.92;;;28.20;46.50;;;;;;5028719;28;20113;-68
2021/06/12 11:19:42;;;;;;;15.80;10.88;;;28.60;44.70;;;;;;5032239;28;20021;-69
2021/06/12 11:22:30;;;;;;;22.77;16.20;;;28.70;44.70;;;;;;5032247;28;20029;-70
2021/06/12 11:25:16;;;;;;;17.33;12.48;;;28.70;44.50;;;;;;5031694;28;20025;-69
2021/06/12 11:27:49;;;;;;;31.95;23.58;;;28.50;45.00;;;;;;5017718;28;20033;-68
2021/06/12 11:30:18;;;;;;;18.38;13.20;;;29.00;44.80;;;;;;5031617;28;20021;-70
2021/06/12 11:32:46;;;;;;;30.52;18.75;;;29.50;43.70;;;;;;5030612;28;20095;-67
2021/06/12 11:35:32;;;;;;;29.95;17.05;;;29.70;43.10;;;;;;5031816;28;20064;-70
2021/06/12 11:37:58;;;;;;;24.42;12.75;;;29.90;41.80;;;;;;5011037;28;20884;-69
2021/06/12 11:40:23;;;;;;;30.60;16.80;;;30.10;41.60;;;;;;5010358;28;20161;-70
2021/06/12 11:42:49;;;;;;;23.25;14.90;;;30.30;42.20;;;;;;5010594;28;20033;-70
2021/06/12 11:45:21;;;;;;;10.90;6.82;;;30.40;41.90;;;;;;5012186;28;20026;-71
2021/06/12 11:47:48;;;;;;;8.82;7.20;;;29.70;41.80;;;;;;5010714;28;20100;-71
2021/06/12 11:50:14;;;;;;;10.13;8.07;;;29.60;42.60;;;;;;5010297;28;20084;-69
2021/06/12 11:52:42;;;;;;;9.50;7.57;;;29.50;42.50;;;;;;5011932;28;20443;-68
2021/06/12 11:55:19;;;;;;;13.38;6.53;;;29.00;44.20;;;;;;5011750;28;20052;-70
2021/06/12 11:57:47;;;;;;;17.95;7.60;;;28.50;45.10;;;;;;5010922;28;20543;-69
2021/06/12 12:00:34;;;;;;;10.13;7.15;;;28.00;45.60;;;;;;5010424;28;20516;-71
2021/06/12 12:03:06;;;;;;;9.70;7.60;;;27.50;47.00;;;;;;5011434;28;20460;-69
2021/06/12 12:05:40;;;;;;;73.13;56.30;;;27.20;47.50;;;;;;5019300;28;20056;-70
2021/06/12 12:08:17;;;;;;;28.67;17.75;;;27.00;47.40;;;;;;5029546;28;20041;-69
2021/06/12 12:10:50;;;;;;;19.42;11.10;;;27.20;47.50;;;;;;5025084;28;20037;-70
2021/06/12 12:13:34;;;;;;;140.57;120.63;;;27.50;46.60;;;;;;5012582;28;20038;-70
2021/06/12 12:16:00;;;;;;;26.20;21.67;;;27.80;45.90;;;;;;5026825;28;20057;-70
2021/06/12 12:18:25;;;;;;;17.17;12.57;;;27.70;46.20;;;;;;5022038;28;20104;-70
2021/06/12 12:20:56;;;;;;;12.77;9.38;;;27.50;46.60;;;;;;5031379;28;20428;-69
2021/06/12 12:23:28;;;;;;;24.60;19.02;;;27.20;47.30;;;;;;5030957;28;20036;-68
2021/06/12 12:26:13;;;;;;;20.17;16.80;;;26.80;48.50;;;;;;5029705;28;20052;-69
2021/06/12 12:29:18;;;;;;;17.48;10.10;;;26.70;49.30;;;;;;5031343;28;20020;-68
2021/06/12 12:31:47;;;;;;;11.30;6.40;;;26.40;49.70;;;;;;5029452;28;20387;-69
2021/06/12 12:34:13;;;;;;;10.73;9.63;;;26.40;49.30;;;;;;5022573;28;20058;-70
2021/06/12 12:36:49;;;;;;;8.20;5.80;;;26.40;49.60;;;;;;5019083;28;20570;-70
2021/06/12 12:39:15;;;;;;;9.52;6.25;;;26.60;48.50;;;;;;5030778;28;20018;-70
2021/06/12 12:41:55;;;;;;;8.52;5.35;;;26.80;48.20;;;;;;5030743;28;20387;-70
2021/06/12 12:44:21;;;;;;;7.43;5.45;;;27.00;48.10;;;;;;5030982;28;20014;-72
2021/06/12 12:46:48;;;;;;;6.13;4.78;;;27.50;46.50;;;;;;5029177;28;20411;-73
2021/06/12 12:49:28;;;;;;;9.13;4.22;;;27.90;45.60;;;;;;5029638;28;20057;-71
2021/06/12 12:51:58;;;;;;;4.72;4.20;;;28.30;44.30;;;;;;5012222;28;20411;-68
2021/06/12 12:54:27;;;;;;;5.45;3.47;;;28.20;44.50;;;;;;5011271;28;20399;-69
2021/06/12 12:56:58;;;;;;;4.78;3.45;;;28.40;44.10;;;;;;5009883;28;20037;-67
2021/06/12 12:59:29;;;;;;;6.97;4.57;;;28.40;43.80;;;;;;5009679;28;20440;-69
2021/06/12 13:01:55;;;;;;;;;;;28.60;43.00;;;;;;5010194;28;20488;-67
2021/06/12 13:04:46;;;;;;;18.45;9.85;;;28.50;43.40;;;;;;5011281;28;19967;-67
2021/06/12 13:07:16;;;;;;;5.35;2.92;;;28.50;43.70;;;;;;5009480;28;20099;-70
2021/06/12 13:10:00;;;;;;;7.22;2.90;;;28.50;43.70;;;;;;5026671;28;20029;-69
2021/06/12 13:12:27;;;;;;;6.72;2.60;;;28.20;43.70;;;;;;5030595;28;20064;-70